Time;durP1;ratioP1;P1;durP2;ratioP2;P2;SDS_P1;SDS_P2;PMS_P1;PMS_P2;Temp;Humidity;BMP_temperature;BMP_pressure;BME280_temperature;BME280_humidity;BME280_pressure;Samples;Min_cycle;Max_cycle;Signal;HPM_P1;HPM_P2
2022/01/30 00:01:54;;;;;;;23.90;4.37;;;;;;;-145.18;100.00;46922.16;4949316;29;20511;-73
2022/01/30 00:04:19;;;;;;;25.97;4.70;;;;;;;-145.18;100.00;46937.78;4931718;29;20104;-73
2022/01/30 00:06:45;;;;;;;22.93;3.00;;;;;;;-145.18;100.00;46971.00;4949021;29;20120;-74
2022/01/30 00:09:17;;;;;;;27.20;4.83;;;;;;;-145.18;100.00;46945.59;4948853;29;20047;-73
2022/01/30 00:11:47;;;;;;;25.97;3.87;;;;;;;-145.18;100.00;46988.56;4949060;29;20051;-73
2022/01/30 00:14:15;;;;;;;21.77;3.33;;;;;;;-145.18;100.00;46965.13;4948620;29;20849;-73
2022/01/30 00:16:41;;;;;;;26.37;4.17;;;;;;;-145.18;100.00;46994.44;4932376;29;20789;-73
2022/01/30 00:19:35;;;;;;;28.17;4.23;;;;;;;-145.18;100.00;47015.91;4948293;29;20253;-74
2022/01/30 00:22:02;;;;;;;37.10;5.15;;;;;;;-145.18;100.00;47012.00;4948242;29;20047;-73
2022/01/30 00:24:43;;;;;;;;;;;;;;;-145.18;100.00;47017.88;4949269;29;20047;-71
2022/01/30 00:27:15;;;;;;;24.77;3.27;;;;;;;-145.18;100.00;46982.72;4948625;29;19919;-74
2022/01/30 00:29:41;;;;;;;28.97;4.27;;;;;;;-145.18;100.00;46982.72;4932613;29;20769;-73
2022/01/30 00:32:07;;;;;;;18.37;3.63;;;;;;;-145.18;100.00;46963.19;4948718;29;20261;-74
2022/01/30 00:34:32;;;;;;;37.03;5.20;;;;;;;-145.18;100.00;46971.00;4948903;29;20508;-73
2022/01/30 00:37:00;;;;;;;30.10;4.47;;;;;;;-145.18;100.00;46967.09;4931119;29;20070;-73
2022/01/30 00:39:25;;;;;;;23.33;4.37;;;;;;;-145.18;100.00;47008.09;4948525;29;20055;-71
2022/01/30 00:41:50;;;;;;;20.87;3.00;;;;;;;-145.18;100.00;46992.47;4948797;29;20301;-73
2022/01/30 00:44:16;;;;;;;17.83;3.90;;;;;;;-145.18;100.00;47025.69;4949267;29;20071;-73
2022/01/30 00:46:41;;;;;;;28.23;4.23;;;;;;;-145.18;100.00;47021.78;4948627;29;20496;-74
2022/01/30 00:49:06;;;;;;;27.13;3.83;;;;;;;-145.18;100.00;47101.88;4948177;29;20539;-73
2022/01/30 00:51:34;;;;;;;27.27;4.67;;;;;;;-145.18;100.00;47154.63;4931586;29;20083;-73
2022/01/30 00:53:59;;;;;;;25.30;5.10;;;;;;;-145.18;100.00;47348.03;4948219;29;20047;-71
2022/01/30 00:56:25;;;;;;;32.60;3.90;;;;;;;-145.18;100.00;47402.72;4951195;28;20266;-70
2022/01/30 00:58:50;;;;;;;28.20;3.73;;;;;;;-145.18;100.00;47404.69;4952737;29;20039;-71
2022/01/30 01:01:15;;;;;;;16.33;3.00;;;;;;;-145.18;100.00;47422.28;4951661;29;20070;-71
2022/01/30 01:03:41;;;;;;;27.73;3.83;;;;;;;-145.18;100.00;47391.00;4951982;29;20515;-73
2022/01/30 01:06:06;;;;;;;24.90;3.37;;;;;;;-145.18;100.00;47443.75;4952088;29;20050;-74
2022/01/30 01:08:47;;;;;;;21.83;2.90;;;;;;;-145.18;100.00;47469.16;4951805;29;20452;-71
2022/01/30 01:24:41;;;;;;;27.90;3.90;;;;;;;-145.18;100.00;47127.28;4951694;29;20281;-73
2022/01/30 01:27:06;;;;;;;29.30;4.53;;;;;;;-145.18;100.00;47096.00;4951082;29;20278;-73
2022/01/30 01:29:31;;;;;;;19.20;4.17;;;;;;;-145.18;100.00;47035.44;4951512;29;20044;-73
2022/01/30 01:31:57;;;;;;;25.13;3.97;;;;;;;-145.18;100.00;47031.53;4951459;29;20039;-71
2022/01/30 01:34:31;;;;;;;20.80;4.53;;;;;;;-145.18;100.00;46982.72;4951249;29;20039;-73
2022/01/30 01:36:57;;;;;;;42.67;4.53;;;;;;;-145.18;100.00;46949.50;4951456;29;20045;-73
2022/01/30 01:39:22;;;;;;;27.47;3.83;;;;;;;-145.18;100.00;46931.91;4950878;29;20285;-73
2022/01/30 01:41:48;;;;;;;31.80;3.90;;;;;;;-145.18;100.00;46926.06;4950799;29;20094;-73
2022/01/30 01:44:15;;;;;;;33.93;4.13;;;;;;;-145.18;100.00;46896.75;4950982;29;20181;-73
2022/01/30 01:46:42;;;;;;;24.20;4.07;;;;;;;-145.18;100.00;46888.94;4951089;29;20071;-73
2022/01/30 01:49:10;;;;;;;33.33;5.53;;;;;;;-145.18;100.00;46928.00;4950603;29;20297;-74
2022/01/30 01:51:35;;;;;;;29.37;3.80;;;;;;;-145.18;100.00;46877.22;4951368;29;20280;-73
2022/01/30 01:54:01;;;;;;;25.40;5.13;;;;;;;-145.18;100.00;46845.97;4950737;29;20281;-73
2022/01/30 01:56:28;;;;;;;39.57;5.23;;;;;;;-145.18;100.00;46851.81;4951523;29;20389;-73
2022/01/30 01:58:53;;;;;;;21.50;2.97;;;;;;;-145.18;100.00;46842.06;4951233;29;20047;-73
2022/01/30 02:01:19;;;;;;;32.17;4.27;;;;;;;-145.18;100.00;46840.09;4950755;29;20281;-73
2022/01/30 02:03:44;;;;;;;29.63;4.27;;;;;;;-145.18;100.00;46826.44;4950330;29;20035;-73
2022/01/30 02:06:14;;;;;;;16.47;2.50;;;;;;;-145.18;100.00;46824.47;4950341;28;20515;-73
2022/01/30 02:08:44;;;;;;;24.40;3.70;;;;;;;-145.18;100.00;46824.47;4950750;29;20051;-73
2022/01/30 02:11:14;;;;;;;14.53;3.23;;;;;;;-145.18;100.00;46818.63;4950837;29;20331;-73
2022/01/30 02:26:58;;;;;;;22.23;4.00;;;;;;;-145.18;100.00;46871.38;4950320;29;20277;-74
2022/01/30 02:29:24;;;;;;;30.37;5.87;;;;;;;-145.18;100.00;46865.50;4950253;29;20296;-73
2022/01/30 02:31:50;;;;;;;32.63;4.23;;;;;;;-145.18;100.00;46928.00;4950571;29;20417;-73
2022/01/30 02:34:15;;;;;;;24.60;4.77;;;;;;;-145.18;100.00;46916.28;4950255;29;20170;-73
2022/01/30 02:36:51;;;;;;;20.43;3.47;;;;;;;-145.18;100.00;46937.78;4950309;29;20066;-73
2022/01/30 02:39:17;;;;;;;20.25;2.70;;;;;;;-145.18;100.00;46924.09;4949955;29;20047;-73
2022/01/30 02:41:43;;;;;;;20.27;2.63;;;;;;;-145.18;100.00;46920.19;4950060;29;20064;-73
2022/01/30 02:46:40;;;;;;;21.87;2.43;;;;;;;-145.18;100.00;46978.81;4947029;29;20047;-73
2022/01/30 02:51:49;;;;;;;20.60;3.20;;;;;;;-145.18;100.00;46967.09;4930591;29;20289;-73
2022/01/30 02:54:14;;;;;;;24.30;3.50;;;;;;;-145.18;100.00;46957.31;4930803;29;20282;-73
2022/01/30 02:56:41;;;;;;;23.27;4.23;;;;;;;-145.18;100.00;47096.00;4930786;29;20838;-73
2022/01/30 02:59:06;;;;;;;18.40;3.73;;;;;;;-145.18;100.00;47119.47;4930527;29;20036;-73
2022/01/30 03:04:00;;;;;;;22.27;2.70;;;;;;;-145.18;100.00;47139.00;4420767;23;20089;-71
2022/01/30 03:06:26;;;;;;;23.57;3.90;;;;;;;-145.18;100.00;47127.28;4957768;28;20887;-71
2022/01/30 03:08:52;;;;;;;31.33;4.00;;;;;;;-145.18;100.00;47205.41;4932340;29;20118;-72
2022/01/30 03:11:18;;;;;;;22.33;3.90;;;;;;;-145.18;100.00;47230.81;4950345;29;20356;-71
2022/01/30 03:13:43;;;;;;;22.03;2.50;;;;;;;-145.18;100.00;47256.22;4949824;29;20097;-72
2022/01/30 03:16:08;;;;;;;18.93;3.07;;;;;;;-145.18;100.00;47377.34;4932542;29;20138;-71
2022/01/30 03:18:34;;;;;;;13.13;1.77;;;;;;;-145.18;100.00;47449.63;4933189;29;20586;-72
2022/01/30 03:20:59;;;;;;;16.70;2.57;;;;;;;-145.18;100.00;47514.09;4949951;29;20046;-72
2022/01/30 03:23:25;;;;;;;10.33;1.53;;;;;;;-145.18;100.00;47480.88;4949203;29;20046;-72
2022/01/30 03:25:56;;;;;;;18.87;1.93;;;;;;;-145.18;100.00;47398.81;4949736;29;20075;-72
2022/01/30 03:28:21;;;;;;;12.87;2.20;;;;;;;-145.18;100.00;47377.34;4933405;29;20031;-72
2022/01/30 03:30:48;;;;;;;13.30;2.73;;;;;;;-145.18;100.00;47297.22;4949822;29;20353;-72
2022/01/30 03:33:14;;;;;;;17.20;2.23;;;;;;;-145.18;100.00;47164.38;4949057;29;20059;-71
2022/01/30 03:35:40;;;;;;;12.43;1.90;;;;;;;-145.18;100.00;47111.66;4950310;29;20281;-71
2022/01/30 03:38:05;;;;;;;18.60;2.43;;;;;;;-145.18;100.00;47072.56;4949009;29;20043;-72
2022/01/30 03:40:31;;;;;;;15.67;2.07;;;;;;;-145.18;100.00;47021.78;4949679;29;20642;-71
2022/01/30 03:42:56;;;;;;;15.43;2.63;;;;;;;-145.18;100.00;46980.75;4949244;29;20105;-71
2022/01/30 03:45:22;;;;;;;15.97;2.20;;;;;;;-145.18;100.00;46957.31;4932506;29;20043;-71
2022/01/30 03:47:47;;;;;;;19.90;3.13;;;;;;;-145.18;100.00;46929.97;4949018;29;20154;-71
2022/01/30 03:50:13;;;;;;;27.40;3.43;;;;;;;-145.18;100.00;46898.72;4950220;29;20389;-72
2022/01/30 03:52:39;;;;;;;18.13;3.17;;;;;;;-145.18;100.00;46908.47;4949230;29;20558;-71
2022/01/30 03:55:05;;;;;;;25.03;3.33;;;;;;;-145.18;100.00;46871.38;4949120;29;20063;-72
2022/01/30 03:57:30;;;;;;;20.43;2.63;;;;;;;-145.18;100.00;46892.84;4948881;29;20520;-72
2022/01/30 03:59:56;;;;;;;15.47;1.83;;;;;;;-145.18;100.00;46881.13;4949359;29;20262;-71
2022/01/30 04:02:21;;;;;;;15.70;3.33;;;;;;;-145.18;100.00;46902.63;4948776;28;20042;-71
2022/01/30 04:04:47;;;;;;;17.97;3.47;;;;;;;-145.18;100.00;46894.81;4950053;29;20043;-72
2022/01/30 04:07:12;;;;;;;12.70;2.37;;;;;;;-145.18;100.00;46900.66;4948717;29;20444;-72
2022/01/30 04:09:38;;;;;;;20.07;2.83;;;;;;;-145.18;100.00;46922.16;4949279;29;20043;-71
2022/01/30 04:12:04;;;;;;;22.23;2.80;;;;;;;-145.18;100.00;46883.09;4948751;29;20050;-71
2022/01/30 04:14:29;;;;;;;16.03;2.27;;;;;;;-145.18;100.00;46894.81;4949413;29;20087;-71
2022/01/30 04:16:55;;;;;;;19.40;2.93;;;;;;;-145.18;100.00;46883.09;4948587;29;20496;-71
2022/01/30 04:19:21;;;;;;;15.00;2.50;;;;;;;-145.18;100.00;46945.59;4949550;29;20474;-72
2022/01/30 04:21:46;;;;;;;20.17;1.90;;;;;;;-145.18;100.00;46939.72;4949324;29;20094;-71
2022/01/30 04:24:11;;;;;;;17.93;2.33;;;;;;;-145.18;100.00;46918.25;4931557;29;20054;-72
2022/01/30 04:26:37;;;;;;;17.47;2.20;;;;;;;-145.18;100.00;46969.03;4949038;29;20499;-72
2022/01/30 04:29:02;;;;;;;11.07;2.03;;;;;;;-145.18;100.00;47334.34;4948859;28;20051;-71
2022/01/30 04:31:28;;;;;;;17.17;1.97;;;;;;;-145.18;100.00;47582.47;4952520;29;20567;-71
2022/01/30 04:33:54;;;;;;;13.50;1.97;;;;;;;-145.18;100.00;47627.41;4935565;29;20438;-72
2022/01/30 04:36:25;;;;;;;11.27;1.73;;;;;;;-145.18;100.00;47598.09;4953129;29;20043;-71
2022/01/30 04:41:47;;;;;;;29.60;2.47;;;;;;;-145.18;100.00;47609.84;4952676;29;20342;-72
2022/01/30 04:52:51;;;;;;;16.47;1.27;;;;;;;-145.18;100.00;47562.94;4952290;29;19965;-72
2022/01/30 04:56:01;;;;;;;12.70;2.47;;;;;;;-145.18;100.00;47572.72;4952406;29;20289;-71
2022/01/30 13:14:41;;;;;;;14.18;3.35;;;;;;;-145.18;100.00;47287.47;5031631;27;20896;-73
2022/01/30 13:17:07;;;;;;;20.83;3.87;;;;;;;-145.18;100.00;47267.94;5027105;28;20044;-73
2022/01/30 13:19:34;;;;;;;17.83;3.30;;;;;;;-145.18;100.00;47256.22;5047820;28;20378;-72
2022/01/30 13:22:05;;;;;;;18.70;3.87;;;;;;;-145.18;100.00;47265.97;5084601;28;20033;-73
2022/01/30 13:24:31;;;;;;;22.27;3.93;;;;;;;-145.18;100.00;47320.69;5064398;28;20296;-73
2022/01/30 13:27:08;;;;;;;21.80;3.27;;;;;;;-145.18;100.00;47394.91;5065284;28;20258;-73
2022/01/30 13:29:36;;;;;;;15.50;2.97;;;;;;;-145.18;100.00;47424.22;5043901;28;20037;-73
2022/01/30 13:32:07;;;;;;;24.13;3.63;;;;;;;-145.18;100.00;47416.41;5061014;28;20782;-72
2022/01/30 13:34:33;;;;;;;19.63;4.07;;;;;;;-145.18;100.00;47449.63;5064210;28;20281;-73
2022/01/30 13:37:11;;;;;;;25.60;4.10;;;;;;;-145.18;100.00;47469.16;5065369;28;20265;-73
2022/01/30 13:46:54;;;;;;;22.53;3.00;;;;;;;-145.18;100.00;47482.84;5064663;28;20266;-73
2022/01/30 13:48:01;;;;;;;13.97;2.70;;;;;;;-145.18;100.00;47478.94;5064774;28;20273;-73
2022/01/30 13:50:36;;;;;;;22.67;3.73;;;;;;;-145.18;100.00;47488.69;5063810;28;20278;-73
2022/01/30 13:53:04;;;;;;;24.20;4.30;;;;;;;-145.18;100.00;47471.13;5065360;28;20746;-73
2022/01/30 13:55:30;;;;;;;27.43;3.20;;;;;;;-145.18;100.00;47332.41;5065041;28;20293;-73
2022/01/30 13:57:58;;;;;;;34.63;3.83;;;;;;;-145.18;100.00;47277.69;5065078;28;20278;-73
2022/01/30 14:00:27;;;;;;;18.13;3.73;;;;;;;-145.18;100.00;47265.97;5064418;28;20258;-73
2022/01/30 14:03:00;;;;;;;23.97;4.00;;;;;;;-145.18;100.00;47273.78;5049234;28;20317;-73
2022/01/30 14:05:28;;;;;;;25.63;5.77;;;;;;;-145.18;100.00;47252.31;5044185;28;20278;-73
2022/01/30 14:07:56;;;;;;;26.93;3.67;;;;;;;-145.18;100.00;47267.94;5043460;28;20270;-73
2022/01/30 14:10:22;;;;;;;27.57;5.03;;;;;;;-145.18;100.00;47273.78;5044636;28;20695;-73
2022/01/30 14:12:52;;;;;;;31.27;4.27;;;;;;;-145.18;100.00;47443.75;5044380;28;20357;-72
2022/01/30 14:15:24;;;;;;;19.73;4.10;;;;;;;-145.18;100.00;47461.34;5044769;28;20275;-72
2022/01/30 14:18:06;;;;;;;26.20;2.90;;;;;;;-145.18;100.00;47457.44;5044436;28;20349;-73
2022/01/30 14:20:31;;;;;;;22.43;3.23;;;;;;;-145.18;100.00;47465.25;5044509;28;20278;-73
2022/01/30 14:23:06;;;;;;;38.97;4.40;;;;;;;-145.18;100.00;47465.25;5044765;28;20274;-72
2022/01/30 14:25:32;;;;;;;29.70;3.90;;;;;;;-145.18;100.00;47461.34;5033429;28;20100;-73
2022/01/30 14:27:57;;;;;;;25.23;4.00;;;;;;;-145.18;100.00;47480.88;5030886;28;20926;-73
2022/01/30 14:30:35;;;;;;;25.17;3.53;;;;;;;-145.18;100.00;47465.25;5030766;28;20399;-72
2022/01/30 14:33:01;;;;;;;29.43;4.03;;;;;;;-145.18;100.00;47484.78;5029925;28;20046;-73
2022/01/30 14:35:29;;;;;;;33.80;5.07;;;;;;;-145.18;100.00;47488.69;5030232;28;20362;-72
2022/01/30 14:37:55;;;;;;;31.90;4.53;;;;;;;-145.18;100.00;47484.78;5030769;28;20034;-72
2022/01/30 14:40:21;;;;;;;21.27;3.37;;;;;;;-145.18;100.00;47486.75;5030433;28;20274;-72
2022/01/30 14:42:47;;;;;;;28.17;2.60;;;;;;;-145.18;100.00;47494.56;5031275;28;20041;-73
2022/01/30 14:45:12;;;;;;;29.97;4.10;;;;;;;-145.18;100.00;47471.13;5022802;28;20297;-73
2022/01/30 14:47:38;;;;;;;29.70;4.00;;;;;;;-145.18;100.00;47492.59;5048438;28;20045;-72
2022/01/30 14:50:04;;;;;;;20.53;3.57;;;;;;;-145.18;100.00;47504.31;5039236;28;20401;-72
2022/01/30 14:52:29;;;;;;;22.27;3.67;;;;;;;-145.18;100.00;47478.94;5029566;28;20047;-72
2022/01/30 14:54:54;;;;;;;27.53;4.07;;;;;;;-145.18;100.00;47490.66;5029995;28;20686;-72
2022/01/30 14:57:22;;;;;;;24.63;3.53;;;;;;;-145.18;100.00;47469.16;5029591;28;20088;-73
2022/01/30 14:59:48;;;;;;;29.47;4.47;;;;;;;-145.18;100.00;47492.59;5028563;28;20104;-73
2022/01/30 15:02:13;;;;;;;28.33;3.50;;;;;;;-145.18;100.00;47512.16;5028939;28;20283;-72
2022/01/30 15:04:39;;;;;;;25.47;4.40;;;;;;;-145.18;100.00;47490.66;5011112;28;20270;-73
2022/01/30 15:07:04;;;;;;;27.67;5.40;;;;;;;-145.18;100.00;47510.19;5028624;28;20112;-73
2022/01/30 15:09:30;;;;;;;28.77;4.10;;;;;;;-145.18;100.00;47527.78;5028894;28;20120;-71
2022/01/30 15:11:55;;;;;;;28.20;3.33;;;;;;;-145.18;100.00;47512.16;5012204;28;20040;-73
2022/01/30 15:14:24;;;;;;;32.83;4.87;;;;;;;-145.18;100.00;47502.38;5027945;28;20067;-72
2022/01/30 15:16:51;;;;;;;16.23;4.60;;;;;;;-145.18;100.00;47516.06;5029486;28;20084;-72
2022/01/30 15:19:18;;;;;;;32.17;4.43;;;;;;;-145.18;100.00;47519.97;5028493;28;20494;-73
2022/01/30 15:21:44;;;;;;;23.30;4.00;;;;;;;-145.18;100.00;47518.00;5008031;28;20266;-73
2022/01/30 15:24:10;;;;;;;24.37;4.87;;;;;;;-145.18;100.00;47521.91;5038335;28;20313;-73
2022/01/30 15:26:36;;;;;;;24.17;3.63;;;;;;;-145.18;100.00;47516.06;5027772;28;20271;-71
2022/01/30 15:29:04;;;;;;;25.80;3.97;;;;;;;-145.18;100.00;47512.16;5028149;28;20266;-73
2022/01/30 15:31:29;;;;;;;17.53;3.63;;;;;;;-145.18;100.00;47516.06;5028335;28;20658;-72
2022/01/30 15:33:55;;;;;;;27.03;4.50;;;;;;;-145.18;100.00;47516.06;5029190;28;20270;-72
2022/01/30 15:36:21;;;;;;;28.87;4.90;;;;;;;-145.18;100.00;47521.91;5027460;28;20041;-72
2022/01/30 15:38:47;;;;;;;27.33;4.03;;;;;;;-145.18;100.00;47521.91;5029106;28;20267;-72
2022/01/30 15:41:12;;;;;;;33.33;4.30;;;;;;;-145.18;100.00;47514.09;5028479;28;20036;-72
2022/01/30 15:43:39;;;;;;;18.03;3.60;;;;;;;-145.18;100.00;47545.34;5029320;28;20041;-72
2022/01/30 15:49:10;;;;;;;23.80;3.40;;;;;;;-145.18;100.00;47516.06;5028544;28;20290;-72
2022/01/30 15:51:41;;;;;;;33.03;5.43;;;;;;;-145.18;100.00;47521.91;5026589;28;20335;-72
2022/01/30 15:54:08;;;;;;;29.47;3.57;;;;;;;-145.18;100.00;47521.91;5028110;28;20132;-73
2022/01/30 15:56:34;;;;;;;26.33;3.90;;;;;;;-145.18;100.00;47541.44;5027751;28;20328;-72
2022/01/30 15:59:00;;;;;;;23.80;3.50;;;;;;;-145.18;100.00;47557.06;5026582;28;20270;-73
2022/01/30 16:01:29;;;;;;;26.30;4.37;;;;;;;-145.18;100.00;47547.31;5027633;28;20048;-72
2022/01/30 16:03:54;;;;;;;22.10;3.70;;;;;;;-145.18;100.00;47566.84;5027497;28;20060;-72
2022/01/30 16:06:19;;;;;;;26.23;3.77;;;;;;;-145.18;100.00;47551.22;5027571;28;20754;-72
2022/01/30 16:08:52;;;;;;;22.97;4.70;;;;;;;-145.18;100.00;47561.00;5028649;28;20378;-71
2022/01/30 16:16:29;;;;;;;21.23;3.70;;;;;;;-145.18;100.00;47543.41;5027488;28;20075;-72
2022/01/30 16:18:54;;;;;;;20.63;3.67;;;;;;;-145.18;100.00;47543.41;5028353;28;20275;-72
2022/01/30 16:21:20;;;;;;;24.53;3.70;;;;;;;-145.18;100.00;47551.22;5027832;28;20274;-72
2022/01/30 16:23:45;;;;;;;24.03;3.30;;;;;;;-145.18;100.00;47551.22;5028206;28;20041;-72
2022/01/30 16:26:11;;;;;;;26.30;3.83;;;;;;;-145.18;100.00;47553.16;5027287;28;20041;-72
2022/01/30 16:28:36;;;;;;;36.13;6.10;;;;;;;-145.18;100.00;47539.50;5027731;28;20037;-71
2022/01/30 16:31:02;;;;;;;22.43;7.67;;;;;;;-145.18;100.00;47523.88;5028265;28;20049;-73
2022/01/30 16:33:27;;;;;;;27.20;4.10;;;;;;;-145.18;100.00;47523.88;5027193;28;20053;-72
2022/01/30 16:35:52;;;;;;;21.57;5.37;;;;;;;-145.18;100.00;47516.06;5021941;28;20057;-72
2022/01/30 16:38:18;;;;;;;28.00;4.30;;;;;;;-145.18;100.00;47518.00;5026781;28;20029;-72
2022/01/30 16:40:45;;;;;;;25.57;4.60;;;;;;;-145.18;100.00;47547.31;5026313;28;20421;-73
2022/01/30 16:43:20;;;;;;;25.47;4.33;;;;;;;-145.18;100.00;47518.00;5027291;28;20088;-72
2022/01/30 16:45:50;;;;;;;30.08;5.10;;;;;;;-145.18;100.00;47527.78;5026591;28;20394;-72
2022/01/30 16:48:18;;;;;;;26.97;4.47;;;;;;;-145.18;100.00;47531.69;5027244;28;20152;-71
2022/01/30 16:50:44;;;;;;;25.73;3.83;;;;;;;-145.18;100.00;47531.69;5026647;28;20271;-72
2022/01/30 16:53:12;;;;;;;17.93;4.20;;;;;;;-145.18;100.00;47518.00;5027401;28;20334;-72
2022/01/30 16:55:39;;;;;;;27.63;4.80;;;;;;;-145.18;100.00;47543.41;5027225;28;20274;-72
2022/01/30 16:58:06;;;;;;;32.80;5.23;;;;;;;-145.18;100.00;47533.63;5027212;28;20612;-72
2022/01/30 17:00:33;;;;;;;26.00;4.13;;;;;;;-145.18;100.00;47533.63;5025539;28;20827;-72
2022/01/30 17:02:58;;;;;;;24.93;5.07;;;;;;;-145.18;100.00;47551.22;5027668;28;20275;-72
2022/01/30 17:05:24;;;;;;;23.13;5.13;;;;;;;-145.18;100.00;47553.16;5027128;28;20270;-72
2022/01/30 17:07:49;;;;;;;27.23;4.83;;;;;;;-145.18;100.00;47541.44;5027037;28;20186;-71
2022/01/30 17:10:18;;;;;;;25.20;3.70;;;;;;;-145.18;100.00;47568.81;5026650;28;20747;-72
2022/01/30 17:15:43;;;;;;;16.57;3.17;;;;;;;-145.18;100.00;47605.94;5027387;28;20271;-72
2022/01/30 17:18:14;;;;;;;21.40;3.63;;;;;;;-145.18;100.00;47641.09;5027183;28;20278;-72
2022/01/30 17:20:46;;;;;;;20.63;3.23;;;;;;;-145.18;100.00;47654.78;5027070;28;20802;-72
2022/01/30 17:23:16;;;;;;;20.90;5.00;;;;;;;-145.18;100.00;47539.50;5026589;28;20373;-72
2022/01/30 17:25:43;;;;;;;26.80;4.07;;;;;;;-145.18;100.00;47221.03;5027026;28;20274;-72
2022/01/30 17:28:09;;;;;;;15.83;3.40;;;;;;;-145.18;100.00;47105.78;5025896;28;20341;-72
2022/01/30 17:30:35;;;;;;;29.17;5.53;;;;;;;-145.18;100.00;46992.47;5026355;28;20275;-72
2022/01/30 17:33:02;;;;;;;24.97;4.10;;;;;;;-145.18;100.00;46937.78;5027453;28;20992;-72
2022/01/30 17:35:29;;;;;;;25.20;3.00;;;;;;;-145.18;100.00;46890.91;5025827;28;20361;-73
2022/01/30 17:37:56;;;;;;;24.27;3.40;;;;;;;-145.18;100.00;46867.44;5026260;28;20269;-72
2022/01/30 17:40:23;;;;;;;19.73;3.77;;;;;;;-145.18;100.00;46847.91;5026131;28;20325;-70
2022/01/30 17:42:50;;;;;;;20.03;3.50;;;;;;;-145.18;100.00;46842.06;5027617;28;20353;-72
2022/01/30 17:45:18;;;;;;;20.33;3.70;;;;;;;-145.18;100.00;46820.56;5026042;28;20309;-72
2022/01/30 17:47:45;;;;;;;23.43;3.30;;;;;;;-145.18;100.00;46822.53;5024890;28;20283;-71
2022/01/30 17:50:13;;;;;;;29.03;3.73;;;;;;;-145.18;100.00;46808.84;5026676;28;20274;-72
2022/01/30 17:52:39;;;;;;;24.37;3.70;;;;;;;-145.18;100.00;46767.84;5025806;28;20278;-71
2022/01/30 17:55:07;;;;;;;20.63;2.83;;;;;;;-145.18;100.00;46758.06;5025445;28;20279;-71
2022/01/30 17:57:33;;;;;;;24.97;3.57;;;;;;;-145.18;100.00;46746.34;5026966;28;20278;-71
2022/01/30 17:59:58;;;;;;;25.43;3.60;;;;;;;-145.18;100.00;46732.66;5026959;28;20266;-73
2022/01/30 18:02:25;;;;;;;22.20;3.63;;;;;;;-145.18;100.00;46719.00;5030502;28;20041;-74
2022/01/30 18:04:51;;;;;;;31.30;4.47;;;;;;;-145.18;100.00;46707.28;5030032;28;20485;-72
2022/01/30 18:07:18;;;;;;;26.90;3.87;;;;;;;-145.18;100.00;46691.66;5030517;28;20294;-71
2022/01/30 18:09:44;;;;;;;22.77;3.60;;;;;;;-145.18;100.00;46677.97;5030161;28;20295;-74
2022/01/30 18:12:11;;;;;;;27.43;3.50;;;;;;;-145.18;100.00;46693.59;5026450;28;20377;-71
2022/01/30 18:14:38;;;;;;;25.90;4.43;;;;;;;-145.18;100.00;46691.66;5023940;28;20513;-73
2022/01/30 18:17:05;;;;;;;18.67;4.57;;;;;;;-145.18;100.00;46679.94;5029518;28;20271;-71
2022/01/30 18:19:30;;;;;;;33.87;5.23;;;;;;;-145.18;100.00;46670.16;5030104;28;20271;-71
2022/01/30 18:21:56;;;;;;;25.23;4.10;;;;;;;-145.18;100.00;46664.31;5030027;28;20766;-73
2022/01/30 18:24:22;;;;;;;25.10;4.73;;;;;;;-145.18;100.00;46662.34;5028680;28;20096;-73
2022/01/30 18:26:48;;;;;;;35.63;5.23;;;;;;;-145.18;100.00;46672.13;5029661;28;20045;-73
2022/01/30 18:29:15;;;;;;;18.70;4.27;;;;;;;-145.18;100.00;46662.34;5029582;28;20287;-73
2022/01/30 18:31:46;;;;;;;28.17;4.03;;;;;;;-145.18;100.00;46668.22;5029807;28;20049;-73
2022/01/30 18:34:12;;;;;;;21.77;3.87;;;;;;;-145.18;100.00;46660.41;5029989;28;20263;-72
2022/01/30 18:36:41;;;;;;;21.90;3.60;;;;;;;-145.18;100.00;46670.16;5030018;28;20358;-71
2022/01/30 18:39:09;;;;;;;24.83;4.47;;;;;;;-145.18;100.00;46660.41;5029386;28;20378;-71
2022/01/30 18:41:35;;;;;;;27.90;5.33;;;;;;;-145.18;100.00;46670.16;5028482;28;20271;-73
2022/01/30 18:44:02;;;;;;;39.47;7.43;;;;;;;-145.18;100.00;46662.34;5029610;28;20283;-73
2022/01/30 18:46:28;;;;;;;36.07;8.17;;;;;;;-145.18;100.00;46658.44;5029385;28;20282;-72
2022/01/30 18:48:53;;;;;;;25.60;5.27;;;;;;;-145.18;100.00;46656.50;5030221;28;21052;-71
2022/01/30 18:51:19;;;;;;;33.40;6.53;;;;;;;-145.18;100.00;46658.44;5029462;28;20414;-71
2022/01/30 18:53:45;;;;;;;30.83;6.27;;;;;;;-145.18;100.00;46658.44;5029445;28;20040;-71
2022/01/30 18:56:14;;;;;;;33.27;5.27;;;;;;;-145.18;100.00;46654.53;5028710;28;20053;-71
2022/01/30 18:58:39;;;;;;;35.13;6.17;;;;;;;-145.18;100.00;46644.78;5030540;28;20283;-71
2022/01/30 19:01:05;;;;;;;31.17;5.50;;;;;;;-145.18;100.00;46648.69;5029444;28;20309;-72
2022/01/30 19:03:31;;;;;;;24.53;3.43;;;;;;;-145.18;100.00;46642.81;5029694;28;20042;-71
2022/01/30 19:05:56;;;;;;;18.20;3.27;;;;;;;-145.18;100.00;46644.78;5029177;28;20080;-71
2022/01/30 19:08:22;;;;;;;32.27;4.47;;;;;;;-145.18;100.00;46652.59;5029312;28;20068;-71
2022/01/30 19:10:47;;;;;;;25.23;3.73;;;;;;;-145.18;100.00;46644.78;5028870;28;20041;-71
2022/01/30 19:13:14;;;;;;;23.43;4.50;;;;;;;-145.18;100.00;46642.81;5028453;28;20414;-72
2022/01/30 19:15:39;;;;;;;22.00;3.93;;;;;;;-145.18;100.00;46652.59;5029396;28;20046;-72
2022/01/30 19:18:06;;;;;;;26.97;4.67;;;;;;;-145.18;100.00;46648.69;5027676;28;20282;-72
2022/01/30 19:20:32;;;;;;;33.63;10.53;;;;;;;-145.18;100.00;46644.78;5028056;28;20073;-71
2022/01/30 19:22:57;;;;;;;27.63;9.37;;;;;;;-145.18;100.00;46654.53;5029318;28;20263;-72
2022/01/30 19:25:23;;;;;;;26.77;5.13;;;;;;;-145.18;100.00;46654.53;5028850;28;20263;-71
2022/01/30 19:27:48;;;;;;;36.03;10.60;;;;;;;-145.18;100.00;46656.50;5029135;28;20409;-71
2022/01/30 19:30:14;;;;;;;24.73;5.90;;;;;;;-145.18;100.00;46662.34;5027816;28;20053;-71
2022/01/30 19:32:39;;;;;;;23.27;5.70;;;;;;;-145.18;100.00;46677.97;5023423;28;20485;-71
2022/01/30 19:35:06;;;;;;;29.40;6.50;;;;;;;-145.18;100.00;46677.97;5027862;28;20133;-71
2022/01/30 19:37:32;;;;;;;40.37;20.17;;;;;;;-145.18;100.00;46662.34;5026674;28;20505;-71
2022/01/30 19:39:57;;;;;;;22.80;5.20;;;;;;;-145.18;100.00;46670.16;5020683;28;20274;-71
2022/01/30 19:42:23;;;;;;;23.83;3.73;;;;;;;-145.18;100.00;46676.03;5023113;28;20080;-70
2022/01/30 19:44:53;;;;;;;19.80;3.83;;;;;;;-145.18;100.00;46666.25;5029245;28;20482;-73
2022/01/30 19:47:24;;;;;;;23.00;3.00;;;;;;;-145.18;100.00;46672.13;5027230;28;20045;-71
2022/01/30 19:49:52;;;;;;;20.43;3.17;;;;;;;-145.18;100.00;46668.22;5028425;28;20305;-71
2022/01/30 19:52:18;;;;;;;27.47;4.13;;;;;;;-145.18;100.00;46666.25;5027014;28;20336;-71
2022/01/30 19:54:43;;;;;;;26.27;5.07;;;;;;;-145.18;100.00;46650.63;5028450;28;20674;-73
2022/01/30 19:57:08;;;;;;;30.07;4.80;;;;;;;-145.18;100.00;46668.22;5027618;28;20274;-73
2022/01/30 19:59:36;;;;;;;14.10;3.57;;;;;;;-145.18;100.00;46670.16;5028770;28;20452;-73
2022/01/30 20:02:03;;;;;;;28.03;4.10;;;;;;;-145.18;100.00;46656.50;5026376;28;20045;-71
2022/01/30 20:04:29;;;;;;;21.47;3.43;;;;;;;-145.18;100.00;46664.31;5027510;28;20389;-70
2022/01/30 20:06:56;;;;;;;26.67;4.60;;;;;;;-145.18;100.00;46666.25;5028088;28;20350;-72
2022/01/30 20:09:21;;;;;;;24.97;4.10;;;;;;;-145.18;100.00;46670.16;5028149;28;20095;-72
2022/01/30 20:11:47;;;;;;;29.17;5.07;;;;;;;-145.18;100.00;46660.41;5027515;28;20270;-72
2022/01/30 20:14:12;;;;;;;36.70;5.87;;;;;;;-145.18;100.00;46664.31;5027351;28;20445;-71
2022/01/30 20:16:38;;;;;;;25.90;4.63;;;;;;;-145.18;100.00;46672.13;5026668;28;20041;-72
2022/01/30 20:19:03;;;;;;;24.20;4.17;;;;;;;-145.18;100.00;46662.34;5028235;28;20064;-71
2022/01/30 20:21:30;;;;;;;27.87;5.33;;;;;;;-145.18;100.00;46664.31;5028406;28;20068;-71